Time;durP1;ratioP1;P1;durP2;ratioP2;P2;SDS_P1;SDS_P2;PMS_P1;PMS_P2;Temp;Humidity;BMP_temperature;BMP_pressure;BME280_temperature;BME280_humidity;BME280_pressure;Samples;Min_cycle;Max_cycle;Signal;HPM_P1;HPM_P2
2022/12/02 00:02:29;;;;;;;65.60;39.65;;;;;;;5.71;100.00;102497.59;5005643;28;20034;-52
2022/12/02 00:04:59;;;;;;;61.60;39.30;;;;;;;5.63;100.00;102492.31;4999369;28;20126;-52
2022/12/02 00:07:27;;;;;;;65.50;38.80;;;;;;;5.58;100.00;102497.47;4997254;28;20116;-49
2022/12/02 00:09:54;;;;;;;65.78;38.60;;;;;;;5.44;100.00;102491.94;5014491;28;20092;-51
2022/12/02 00:12:27;;;;;;;66.15;39.50;;;;;;;5.42;100.00;102494.00;5007051;28;20105;-53
2022/12/02 00:15:00;;;;;;;64.95;39.22;;;;;;;5.48;100.00;102493.25;4994831;28;20090;-50
2022/12/02 00:17:27;;;;;;;63.45;38.45;;;;;;;5.48;100.00;102490.53;4958629;28;20050;-49
2022/12/02 00:19:55;;;;;;;58.47;36.85;;;;;;;5.54;100.00;102487.03;5005210;28;20041;-46
2022/12/02 00:22:23;;;;;;;59.40;38.40;;;;;;;5.60;100.00;102480.03;5009806;28;20046;-48
2022/12/02 00:24:50;;;;;;;56.78;36.33;;;;;;;5.62;100.00;102482.53;5002633;28;20060;-47
2022/12/02 00:27:18;;;;;;;56.30;35.38;;;;;;;5.49;100.00;102473.28;5000675;28;20069;-51
2022/12/02 00:29:46;;;;;;;55.88;34.78;;;;;;;5.36;100.00;102475.84;4989676;28;20088;-50
2022/12/02 00:32:13;;;;;;;65.07;37.72;;;;;;;5.40;100.00;102474.44;5006920;28;20125;-52
2022/12/02 00:34:41;;;;;;;57.13;34.33;;;;;;;5.40;100.00;102465.50;5001722;28;20050;-49
2022/12/02 00:37:08;;;;;;;53.00;32.75;;;;;;;5.40;100.00;102466.31;4981645;28;20098;-52
2022/12/02 00:39:38;;;;;;;60.75;35.88;;;;;;;5.40;100.00;102462.78;5004736;28;20136;-50
2022/12/02 00:42:06;;;;;;;56.50;34.47;;;;;;;5.36;100.00;102467.72;5013417;28;20049;-49
2022/12/02 00:47:19;;;;;;;;;;;;;;;5.41;100.00;102468.00;5004502;28;20039;-50
2022/12/02 00:49:47;;;;;;;50.95;32.35;;;;;;;5.40;100.00;102469.03;5005223;28;20016;-50
2022/12/02 00:52:15;;;;;;;51.05;30.95;;;;;;;5.33;100.00;102465.41;4994788;28;20054;-49
2022/12/02 00:54:42;;;;;;;52.85;33.38;;;;;;;5.18;100.00;102464.66;4988825;28;20030;-51
2022/12/02 00:57:10;;;;;;;55.95;33.67;;;;;;;5.10;100.00;102463.75;4971468;28;20456;-49
2022/12/02 00:59:37;;;;;;;53.80;33.25;;;;;;;5.15;100.00;102465.00;5013871;28;20076;-53
2022/12/02 01:02:06;;;;;;;53.22;32.72;;;;;;;5.20;100.00;102459.91;4994404;28;20515;-52
2022/12/02 01:04:34;;;;;;;45.67;29.25;;;;;;;5.19;100.00;102460.91;4997725;28;20511;-49
2022/12/02 01:07:01;;;;;;;48.47;30.60;;;;;;;5.05;100.00;102471.59;4999946;28;20484;-49
2022/12/02 01:09:29;;;;;;;49.08;31.13;;;;;;;5.03;100.00;102468.22;4968413;28;20046;-51
2022/12/02 01:11:57;;;;;;;57.60;33.83;;;;;;;5.17;100.00;102455.72;5010015;28;20492;-48
2022/12/02 01:14:24;;;;;;;48.92;32.50;;;;;;;5.21;100.00;102453.44;5013417;28;20042;-53
2022/12/02 01:16:52;;;;;;;53.17;33.72;;;;;;;5.13;100.00;102451.72;4999683;28;20046;-48
2022/12/02 01:19:22;;;;;;;50.80;31.55;;;;;;;5.22;100.00;102452.41;4995974;28;20381;-50
2022/12/02 01:21:50;;;;;;;58.67;35.38;;;;;;;5.15;100.00;102454.19;4967601;28;20039;-54
2022/12/02 01:24:18;;;;;;;58.83;36.17;;;;;;;5.07;100.00;102450.59;4996821;28;20053;-51
2022/12/02 01:26:45;;;;;;;54.95;34.80;;;;;;;5.07;100.00;102450.59;5006302;28;20503;-51
2022/12/02 01:29:13;;;;;;;47.83;31.45;;;;;;;5.07;100.00;102452.47;5001105;28;20416;-49
2022/12/02 01:31:40;;;;;;;52.25;32.38;;;;;;;5.03;100.00;102454.72;4979696;28;20072;-51
2022/12/02 01:34:08;;;;;;;55.20;34.65;;;;;;;5.08;100.00;102454.97;4973821;28;20043;-50
2022/12/02 01:36:36;;;;;;;55.78;35.38;;;;;;;5.09;100.00;102451.25;4992983;28;20045;-52
2022/12/02 01:39:04;;;;;;;53.72;35.47;;;;;;;5.01;99.94;102459.47;5005136;28;20042;-48
2022/12/02 01:41:32;;;;;;;54.47;34.80;;;;;;;5.07;100.00;102458.69;4972595;28;20042;-49
2022/12/02 01:43:59;;;;;;;54.13;35.15;;;;;;;5.12;100.00;102456.28;4994117;28;20497;-52
2022/12/02 01:46:27;;;;;;;58.45;36.30;;;;;;;5.17;98.58;102454.84;5006809;28;20052;-50
2022/12/02 01:48:54;;;;;;;47.78;31.00;;;;;;;4.98;98.68;102459.88;4986628;28;20085;-50
2022/12/02 01:51:22;;;;;;;50.42;33.08;;;;;;;4.97;99.78;102458.16;5008175;28;20049;-52
2022/12/02 01:53:50;;;;;;;53.75;34.78;;;;;;;5.07;98.53;102447.88;4987004;28;20050;-49
2022/12/02 01:56:17;;;;;;;49.50;32.70;;;;;;;5.05;98.25;102457.22;4973125;28;20034;-52
2022/12/02 01:58:45;;;;;;;46.67;31.48;;;;;;;5.07;98.26;102455.16;4998762;28;20049;-52
2022/12/02 02:01:29;;;;;;;52.67;32.92;;;;;;;5.03;97.05;102454.72;4995397;28;20050;-52
2022/12/02 02:03:57;;;;;;;45.97;31.42;;;;;;;4.95;96.84;102465.63;5012139;28;20492;-53
2022/12/02 02:06:27;;;;;;;48.72;31.67;;;;;;;4.84;95.74;102458.03;4972944;28;20493;-50
2022/12/02 02:08:56;;;;;;;47.20;32.08;;;;;;;4.66;96.98;102461.94;4982879;28;20146;-53
2022/12/02 02:11:24;;;;;;;49.53;32.17;;;;;;;4.66;97.80;102461.94;4979420;28;20432;-49
2022/12/02 02:13:58;;;;;;;48.85;31.63;;;;;;;4.74;97.84;102454.78;5012622;28;20054;-53
2022/12/02 02:16:25;;;;;;;47.35;31.55;;;;;;;4.64;97.19;102457.75;4971576;28;20034;-49
2022/12/02 02:18:53;;;;;;;49.38;33.00;;;;;;;4.63;96.89;102459.63;4981635;28;20069;-51
2022/12/02 02:21:28;;;;;;;46.78;31.05;;;;;;;4.56;97.08;102452.47;4995165;28;20050;-50
2022/12/02 02:23:56;;;;;;;54.00;34.33;;;;;;;4.50;97.59;102459.47;4978842;28;20048;-52
2022/12/02 02:26:24;;;;;;;48.45;32.33;;;;;;;4.57;98.09;102452.31;4982966;28;20053;-52
2022/12/02 02:28:52;;;;;;;51.38;33.65;;;;;;;4.66;96.86;102447.63;4991045;28;20048;-49
2022/12/02 02:31:19;;;;;;;48.20;32.13;;;;;;;4.62;96.49;102443.66;5011472;28;20567;-53
2022/12/02 02:33:48;;;;;;;44.33;28.85;;;;;;;4.60;96.67;102448.38;4981856;28;20053;-51
2022/12/02 02:36:16;;;;;;;43.88;30.63;;;;;;;4.60;96.58;102435.72;5003484;28;20503;-51
2022/12/02 02:38:43;;;;;;;44.35;30.02;;;;;;;4.65;97.00;102448.66;4996170;28;20128;-50
2022/12/02 02:41:11;;;;;;;44.65;28.02;;;;;;;4.81;97.11;102442.19;5011684;28;20053;-51
2022/12/02 02:43:39;;;;;;;48.40;32.17;;;;;;;4.87;95.51;102441.44;4980985;28;20058;-52
2022/12/02 02:46:08;;;;;;;44.60;29.80;;;;;;;4.89;94.80;102445.63;4957148;28;20046;-47
2022/12/02 02:48:39;;;;;;;50.85;32.47;;;;;;;4.76;94.85;102440.06;4959909;28;20073;-47
2022/12/02 02:51:08;;;;;;;49.60;31.52;;;;;;;4.61;96.04;102437.38;4973332;28;20034;-50
2022/12/02 02:53:36;;;;;;;51.42;32.95;;;;;;;4.54;96.62;102435.63;4988973;28;20049;-48
2022/12/02 02:56:05;;;;;;;51.47;33.20;;;;;;;4.57;96.75;102433.41;4989939;28;20415;-48
2022/12/02 02:58:35;;;;;;;49.72;31.88;;;;;;;4.58;97.17;102429.66;4978289;28;20049;-46
2022/12/02 03:01:18;;;;;;;54.30;34.72;;;;;;;4.56;97.26;102423.63;4957934;28;20058;-50
2022/12/02 03:03:49;;;;;;;48.50;30.85;;;;;;;4.53;96.87;102417.78;4960287;28;20051;-48
2022/12/02 03:06:19;;;;;;;51.90;33.88;;;;;;;4.42;97.56;102421.78;4961963;28;20047;-53
2022/12/02 03:08:48;;;;;;;49.60;32.22;;;;;;;4.44;98.80;102419.72;4978767;28;20517;-49
2022/12/02 03:11:17;;;;;;;48.47;33.47;;;;;;;4.42;97.89;102419.91;4978137;28;20043;-50
2022/12/02 03:13:46;;;;;;;55.85;34.88;;;;;;;4.42;97.89;102421.78;4984702;28;20608;-52
2022/12/02 03:16:15;;;;;;;47.97;31.58;;;;;;;4.39;98.86;102422.16;4967899;28;20046;-49
2022/12/02 03:18:44;;;;;;;48.17;31.35;;;;;;;4.37;98.72;102424.19;4985097;28;20097;-48
2022/12/02 03:21:15;;;;;;;47.40;31.45;;;;;;;4.27;98.96;102413.69;4975384;28;20046;-50
2022/12/02 03:23:44;;;;;;;45.15;29.40;;;;;;;4.37;98.91;102411.53;4984125;28;20038;-50
2022/12/02 03:26:13;;;;;;;43.80;26.92;;;;;;;4.36;98.64;102407.19;4976972;28;20053;-52
2022/12/02 03:28:41;;;;;;;48.67;31.20;;;;;;;4.36;97.81;102411.75;4946387;28;20046;-51
2022/12/02 03:31:09;;;;;;;41.22;25.88;;;;;;;4.24;98.72;102404.13;4982478;28;20042;-50
2022/12/02 03:33:37;;;;;;;38.60;26.15;;;;;;;4.22;99.29;102410.72;4975918;28;20064;-52
2022/12/02 03:36:06;;;;;;;46.53;28.80;;;;;;;4.22;99.34;102408.03;4976339;28;20102;-51
2022/12/02 03:38:33;;;;;;;49.03;29.48;;;;;;;4.33;99.90;102399.47;4983208;28;20086;-48
2022/12/02 03:41:02;;;;;;;44.05;28.90;;;;;;;4.46;99.00;102401.50;4984471;28;20049;-50
2022/12/02 03:43:30;;;;;;;46.88;30.00;;;;;;;4.59;99.11;102393.53;4982852;28;20447;-52
2022/12/02 03:45:58;;;;;;;49.78;30.38;;;;;;;4.60;98.08;102395.22;4979372;28;20045;-52
2022/12/02 03:48:26;;;;;;;48.00;29.77;;;;;;;4.52;98.48;102391.78;4990799;28;20133;-50
2022/12/02 03:50:54;;;;;;;49.15;30.17;;;;;;;4.43;99.01;102402.72;5001522;28;20046;-47
2022/12/02 03:53:22;;;;;;;40.42;25.83;;;;;;;4.40;100.00;102396.84;4963535;28;20043;-54
2022/12/02 03:55:50;;;;;;;46.08;27.77;;;;;;;4.44;99.42;102400.84;4978028;28;20097;-49
2022/12/02 03:58:17;;;;;;;51.17;31.83;;;;;;;4.42;99.00;102386.69;4975504;28;20043;-52
2022/12/02 04:00:45;;;;;;;46.47;29.70;;;;;;;4.41;98.71;102393.13;4958250;28;20042;-51
2022/12/02 04:03:12;;;;;;;45.00;28.73;;;;;;;4.38;98.87;102382.72;4961576;28;20046;-50
2022/12/02 04:05:40;;;;;;;48.95;30.75;;;;;;;4.45;98.93;102375.53;4978802;28;20081;-50
2022/12/02 04:08:15;;;;;;;44.75;28.88;;;;;;;4.51;98.32;102380.16;4972963;28;20042;-51
2022/12/02 04:10:43;;;;;;;47.05;29.20;;;;;;;4.45;97.83;102373.66;4975670;28;20043;-52
2022/12/02 04:13:10;;;;;;;51.13;29.27;;;;;;;4.46;97.78;102374.50;4975992;28;20043;-51
2022/12/02 04:15:38;;;;;;;47.33;29.90;;;;;;;4.40;97.35;102381.50;4989488;28;20473;-50
2022/12/02 04:18:06;;;;;;;43.75;27.33;;;;;;;4.16;97.88;102379.94;4971283;28;20054;-50
2022/12/02 04:20:33;;;;;;;44.17;28.25;;;;;;;4.13;99.20;102379.47;4988476;28;20046;-50
2022/12/02 04:23:01;;;;;;;44.85;27.42;;;;;;;4.16;99.76;102385.34;4975265;28;20038;-50
2022/12/02 04:25:29;;;;;;;43.83;27.85;;;;;;;4.12;99.38;102381.34;4968937;28;20556;-51
2022/12/02 04:27:56;;;;;;;46.88;29.60;;;;;;;3.97;99.96;102380.47;4977092;28;20397;-49
2022/12/02 04:30:24;;;;;;;41.28;26.23;;;;;;;4.00;100.00;102374.72;4984991;28;20046;-52
2022/12/02 04:32:52;;;;;;;40.63;26.10;;;;;;;4.00;100.00;102380.97;4976640;28;20049;-50
2022/12/02 04:35:19;;;;;;;40.35;25.80;;;;;;;3.89;99.60;102377.88;4986601;28;20058;-50
2022/12/02 04:37:48;;;;;;;41.85;26.40;;;;;;;3.94;99.70;102375.47;4973667;28;20501;-50
2022/12/02 04:40:15;;;;;;;35.15;21.45;;;;;;;3.98;98.71;102366.81;4956255;28;20042;-53
2022/12/02 04:42:44;;;;;;;35.83;22.58;;;;;;;4.01;97.47;102368.31;4981867;28;20085;-50
2022/12/02 04:45:12;;;;;;;33.92;21.85;;;;;;;3.89;98.50;102372.50;4989378;28;20038;-50
2022/12/02 04:47:40;;;;;;;36.20;22.48;;;;;;;3.88;98.23;102358.19;4976524;28;20497;-51
2022/12/02 04:50:08;;;;;;;36.28;23.50;;;;;;;3.95;97.74;102355.59;4976110;28;20043;-48
2022/12/02 04:52:35;;;;;;;32.13;20.38;;;;;;;3.90;97.86;102358.00;4957509;28;20046;-52
2022/12/02 04:55:03;;;;;;;33.03;20.65;;;;;;;3.79;97.64;102354.72;4975364;28;20050;-50
2022/12/02 04:57:31;;;;;;;30.80;21.23;;;;;;;3.95;98.24;102355.59;5005589;28;20041;-49
2022/12/02 04:59:59;;;;;;;29.80;19.73;;;;;;;3.99;96.84;102351.47;5013640;28;20100;-48
2022/12/02 05:02:26;;;;;;;33.65;21.85;;;;;;;3.97;97.14;102346.28;4998444;28;20488;-52
2022/12/02 05:04:54;;;;;;;31.38;21.23;;;;;;;3.94;97.66;102343.94;4995162;28;20046;-48
2022/12/02 05:07:22;;;;;;;33.10;21.45;;;;;;;3.98;96.97;102339.03;5008318;28;20038;-52
2022/12/02 05:09:50;;;;;;;34.30;21.42;;;;;;;3.95;96.54;102329.44;5012440;28;20034;-52
2022/12/02 05:12:17;;;;;;;34.30;21.77;;;;;;;3.99;98.14;102343.38;4994854;28;20527;-51
2022/12/02 05:14:45;;;;;;;31.05;19.45;;;;;;;3.91;97.69;102332.69;4971523;28;20046;-50
2022/12/02 05:17:13;;;;;;;31.50;20.05;;;;;;;3.95;97.85;102340.22;4988273;28;20055;-53
2022/12/02 05:19:40;;;;;;;29.95;18.60;;;;;;;4.05;96.74;102345.34;5010282;28;20042;-51
2022/12/02 05:22:08;;;;;;;30.27;18.58;;;;;;;4.11;96.67;102344.56;5012660;28;20053;-50
2022/12/02 05:24:36;;;;;;;32.55;20.77;;;;;;;4.14;95.81;102344.22;5009338;28;20038;-51
2022/12/02 05:27:03;;;;;;;37.25;22.15;;;;;;;4.16;95.55;102338.63;4998007;28;20043;-47
2022/12/02 05:29:31;;;;;;;33.15;19.73;;;;;;;4.04;95.75;102327.47;4983109;28;20077;-50
2022/12/02 05:31:59;;;;;;;32.08;20.52;;;;;;;3.93;96.82;102327.97;4993681;28;20044;-52
2022/12/02 05:34:26;;;;;;;30.73;21.15;;;;;;;3.96;96.33;102324.88;4980379;28;20104;-50
2022/12/02 05:36:54;;;;;;;32.70;20.02;;;;;;;3.94;97.05;102329.63;5000443;28;20485;-49
2022/12/02 05:39:21;;;;;;;32.83;21.30;;;;;;;3.90;96.94;102328.34;4986901;28;20050;-47
2022/12/02 05:41:49;;;;;;;34.72;21.48;;;;;;;3.87;97.60;102334.09;4976155;28;20042;-49
2022/12/02 05:44:22;;;;;;;31.15;19.33;;;;;;;3.83;97.83;102336.34;4988857;28;20063;-51
2022/12/02 05:46:51;;;;;;;35.47;21.80;;;;;;;3.88;98.07;102336.59;4976442;28;20039;-50
2022/12/02 05:49:21;;;;;;;32.65;21.30;;;;;;;3.88;97.80;102333.09;4992494;28;20070;-55
2022/12/02 05:51:57;;;;;;;33.10;21.10;;;;;;;3.93;97.80;102333.34;4964273;28;20050;-53
2022/12/02 05:54:25;;;;;;;34.30;21.65;;;;;;;3.91;97.24;102340.78;4961918;28;20386;-52
2022/12/02 05:56:54;;;;;;;32.95;20.83;;;;;;;3.91;97.96;102330.84;4965680;28;20502;-51
2022/12/02 05:59:22;;;;;;;31.58;19.50;;;;;;;4.00;98.00;102331.59;4953794;28;20043;-51
2022/12/02 06:01:54;;;;;;;32.53;19.45;;;;;;;4.00;97.16;102336.97;4953733;28;20098;-52
2022/12/02 06:04:24;;;;;;;33.22;21.85;;;;;;;4.03;97.36;102326.63;4972186;28;20047;-50
2022/12/02 06:06:53;;;;;;;37.65;22.13;;;;;;;4.00;97.29;102328.88;4966502;28;20041;-50
2022/12/02 06:09:25;;;;;;;35.10;22.80;;;;;;;3.84;97.12;102328.03;4955729;28;20118;-49
2022/12/02 06:11:52;;;;;;;34.85;21.45;;;;;;;3.88;97.99;102325.00;4954567;28;20040;-51
2022/12/02 06:14:27;;;;;;;34.60;22.02;;;;;;;3.92;97.56;102324.44;4956008;28;20102;-50
2022/12/02 06:16:58;;;;;;;33.30;20.40;;;;;;;3.96;98.47;102319.50;4953219;28;20406;-50
2022/12/02 06:19:29;;;;;;;34.05;21.77;;;;;;;4.09;98.18;102329.59;4971137;28;20490;-49
2022/12/02 06:22:04;;;;;;;34.22;21.45;;;;;;;3.95;97.84;102328.63;4954185;28;20054;-48
2022/12/02 06:24:34;;;;;;;35.45;22.40;;;;;;;3.89;99.18;102327.47;4969319;28;20102;-47
2022/12/02 06:27:02;;;;;;;33.30;21.17;;;;;;;3.86;99.25;102321.63;4968683;28;20051;-49
2022/12/02 06:29:30;;;;;;;32.40;21.13;;;;;;;3.79;100.00;102325.06;4953354;28;20090;-49
2022/12/02 06:31:59;;;;;;;36.15;22.10;;;;;;;3.85;100.00;102326.19;4279150;28;10000236;-51
2022/12/02 06:34:40;;;;;;;34.67;21.83;;;;;;;3.73;100.00;102324.97;4970938;28;20081;-47
2022/12/02 06:37:23;;;;;;;36.17;22.20;;;;;;;3.72;100.00;102317.91;4959226;28;20055;-50
2022/12/02 06:39:56;;;;;;;32.72;19.42;;;;;;;3.60;100.00;102321.06;4966650;28;20102;-48
2022/12/02 06:42:45;;;;;;;31.17;19.70;;;;;;;3.59;100.00;102324.78;4959691;28;20113;-49
2022/12/02 06:45:20;;;;;;;33.05;19.13;;;;;;;3.65;100.00;102328.59;4972143;28;20182;-52
2022/12/02 06:48:14;;;;;;;29.80;17.90;;;;;;;3.72;99.46;102316.06;4976274;28;20054;-48
2022/12/02 06:50:43;;;;;;;;;;;;;;;3.86;99.17;102327.88;4983166;28;20047;-52
2022/12/02 06:53:33;;;;;;;32.70;19.17;;;;;;;3.82;99.04;102324.72;4967374;28;19934;-48
2022/12/02 06:56:16;;;;;;;29.17;18.15;;;;;;;3.77;100.00;102326.28;4985627;28;20098;-47
2022/12/02 06:58:52;;;;;;;29.60;18.58;;;;;;;3.76;100.00;102314.66;4973409;28;20066;-53
2022/12/02 07:01:37;;;;;;;30.55;18.42;;;;;;;3.83;99.49;102318.28;4975197;28;20050;-53
2022/12/02 07:04:17;;;;;;;28.17;17.92;;;;;;;3.93;100.00;102325.25;4988796;28;20054;-50
2022/12/02 07:06:49;;;;;;;30.00;18.55;;;;;;;3.83;99.52;102325.53;4973305;28;20051;-50
2022/12/02 07:09:21;;;;;;;27.50;17.13;;;;;;;3.75;100.00;102329.19;4973485;28;20046;-48
2022/12/02 07:11:51;;;;;;;27.85;16.92;;;;;;;3.89;99.65;102334.75;4974530;28;20073;-50
2022/12/02 07:14:55;;;;;;;32.97;18.40;;;;;;;3.93;98.95;102336.88;4965363;28;20047;-51
2022/12/02 07:17:31;;;;;;;33.22;19.40;;;;;;;3.99;99.29;102329.91;4970709;28;20387;-47
2022/12/02 07:20:31;;;;;;;31.55;18.85;;;;;;;3.88;99.52;102338.47;4955984;28;20031;-50
2022/12/02 07:23:00;;;;;;;30.85;19.83;;;;;;;3.76;100.00;102330.00;4973592;28;20046;-51
2022/12/02 07:25:33;;;;;;;31.38;21.25;;;;;;;3.78;99.86;102336.88;4972798;28;20050;-53
2022/12/02 07:28:14;;;;;;;32.97;21.13;;;;;;;3.74;100.00;102338.28;4988949;28;20146;-50
2022/12/02 07:30:42;;;;;;;36.75;21.77;;;;;;;3.65;100.00;102339.38;4967359;28;20050;-49
2022/12/02 07:33:09;;;;;;;32.42;21.17;;;;;;;3.59;100.00;102345.53;4988150;28;20118;-48
2022/12/02 07:35:37;;;;;;;34.40;21.65;;;;;;;3.52;100.00;102339.19;4984564;28;20050;-48
2022/12/02 07:38:04;;;;;;;32.55;19.20;;;;;;;3.39;100.00;102340.66;4975333;28;20043;-50
2022/12/02 07:40:32;;;;;;;32.75;20.70;;;;;;;3.42;100.00;102345.66;4972655;28;20085;-49
2022/12/02 07:42:59;;;;;;;31.73;20.63;;;;;;;3.44;100.00;102341.94;4975361;28;20057;-47
2022/12/02 07:45:27;;;;;;;32.08;18.73;;;;;;;3.49;100.00;102334.16;4962453;28;20101;-52
2022/12/02 07:47:54;;;;;;;31.27;20.05;;;;;;;3.53;100.00;102341.69;4974892;28;20051;-50
2022/12/02 07:50:22;;;;;;;31.13;19.08;;;;;;;3.55;100.00;102345.03;4975859;28;20043;-50
2022/12/02 07:52:50;;;;;;;30.88;18.67;;;;;;;3.63;100.00;102352.19;4976069;28;20493;-51
2022/12/02 07:55:17;;;;;;;32.50;19.48;;;;;;;3.60;100.00;102341.78;4979191;28;20046;-50
2022/12/02 07:57:52;;;;;;;32.25;20.02;;;;;;;3.56;100.00;102344.03;4982778;28;20042;-51
2022/12/02 08:00:20;;;;;;;29.23;19.38;;;;;;;3.61;100.00;102344.31;4988968;28;20046;-51
2022/12/02 08:02:48;;;;;;;34.80;19.92;;;;;;;3.62;100.00;102347.84;4964435;28;20062;-49
2022/12/02 08:05:16;;;;;;;31.65;19.08;;;;;;;3.63;100.00;102347.66;4994582;28;20034;-51
2022/12/02 08:07:43;;;;;;;24.85;16.42;;;;;;;3.70;100.00;102342.34;4977408;28;20489;-49
2022/12/02 08:10:11;;;;;;;29.83;19.00;;;;;;;3.75;100.00;102334.56;5012910;28;20044;-49
2022/12/02 08:12:39;;;;;;;36.08;21.45;;;;;;;3.71;100.00;102349.44;5012711;28;20042;-49
2022/12/02 08:15:08;;;;;;;30.60;19.15;;;;;;;3.61;100.00;102347.00;5003276;28;20045;-48
2022/12/02 08:17:35;;;;;;;31.80;19.58;;;;;;;3.52;100.00;102345.41;5014235;28;20076;-49
2022/12/02 08:20:05;;;;;;;26.13;15.52;;;;;;;3.47;100.00;102341.59;5014582;28;20061;-47
2022/12/02 08:22:33;;;;;;;28.10;17.70;;;;;;;3.51;100.00;102342.88;5009641;28;20445;-48
2022/12/02 08:25:00;;;;;;;31.13;18.50;;;;;;;3.49;100.00;102337.69;4980813;28;20046;-49
2022/12/02 08:27:28;;;;;;;28.45;17.20;;;;;;;3.50;100.00;102341.22;4994816;28;20061;-47
2022/12/02 08:29:55;;;;;;;28.67;17.98;;;;;;;3.51;100.00;102353.66;5013092;28;20045;-49
2022/12/02 08:32:23;;;;;;;29.10;15.70;;;;;;;3.50;100.00;102346.63;5013396;28;20042;-49
2022/12/02 08:34:51;;;;;;;28.70;17.60;;;;;;;3.46;100.00;102345.28;5008595;28;20053;-48
2022/12/02 08:37:19;;;;;;;27.48;16.83;;;;;;;3.40;100.00;102336.94;4973196;28;20038;-50
2022/12/02 08:39:46;;;;;;;28.77;17.00;;;;;;;3.40;100.00;102336.94;5008017;28;20044;-50
2022/12/02 08:42:14;;;;;;;25.02;15.45;;;;;;;3.28;100.00;102338.41;4996633;28;20030;-47
2022/12/02 08:44:42;;;;;;;24.13;14.38;;;;;;;3.36;100.00;102341.00;5005179;28;20050;-51
2022/12/02 08:47:09;;;;;;;24.45;15.50;;;;;;;3.42;100.00;102342.97;5014526;28;20034;-50
2022/12/02 08:49:37;;;;;;;27.23;16.35;;;;;;;3.37;100.00;102348.09;4989328;28;20042;-47
2022/12/02 08:52:05;;;;;;;25.25;14.98;;;;;;;3.29;100.00;102345.44;4978738;28;20093;-47
2022/12/02 08:54:32;;;;;;;29.42;15.25;;;;;;;3.21;100.00;102337.44;4984835;28;20053;-48
2022/12/02 08:57:00;;;;;;;26.38;15.43;;;;;;;3.11;100.00;102343.09;4974434;28;20068;-50
2022/12/02 08:59:27;;;;;;;22.52;14.70;;;;;;;3.07;100.00;102343.63;4974472;28;20065;-48
2022/12/02 09:01:55;;;;;;;28.67;15.80;;;;;;;3.12;100.00;102343.91;4977917;28;20039;-48
2022/12/02 09:04:23;;;;;;;25.27;15.65;;;;;;;3.16;100.00;102345.25;4974570;28;20043;-48
2022/12/02 09:06:50;;;;;;;24.60;14.05;;;;;;;3.18;100.00;102349.41;4974128;28;20047;-49
2022/12/02 09:09:18;;;;;;;28.05;14.70;;;;;;;3.23;100.00;102345.34;4974332;28;20043;-49
2022/12/02 09:11:46;;;;;;;25.08;15.98;;;;;;;3.24;100.00;102341.63;4974380;28;20049;-51
2022/12/02 09:14:13;;;;;;;30.80;15.88;;;;;;;3.09;100.00;102344.28;4976797;28;20101;-49
2022/12/02 09:16:41;;;;;;;27.83;16.60;;;;;;;3.14;100.00;102341.88;4974481;28;20400;-49
2022/12/02 09:19:08;;;;;;;24.73;15.05;;;;;;;3.18;100.00;102337.81;4975203;28;20045;-47
2022/12/02 09:21:36;;;;;;;26.63;15.35;;;;;;;3.18;100.00;102335.13;4989226;28;20122;-49
2022/12/02 09:24:04;;;;;;;25.98;16.55;;;;;;;3.16;100.00;102334.47;4985676;28;20050;-47
2022/12/02 09:26:33;;;;;;;27.45;16.10;;;;;;;3.14;100.00;102336.50;4974002;28;20046;-48
2022/12/02 09:29:00;;;;;;;29.15;15.43;;;;;;;3.21;100.00;102332.06;4974467;28;20057;-48
2022/12/02 09:31:28;;;;;;;28.45;16.27;;;;;;;3.20;100.00;102325.84;4973977;28;20046;-49
2022/12/02 09:33:56;;;;;;;29.75;16.95;;;;;;;3.09;100.00;102334.34;4989162;28;20057;-51
2022/12/02 09:36:23;;;;;;;28.27;17.17;;;;;;;3.06;100.00;102332.03;4979789;28;20034;-50
2022/12/02 09:38:51;;;;;;;29.85;17.00;;;;;;;3.15;100.00;102332.78;4984133;28;20122;-49
2022/12/02 09:41:18;;;;;;;34.40;18.48;;;;;;;3.21;100.00;102326.66;4975700;28;20497;-48
2022/12/02 09:43:47;;;;;;;31.48;17.98;;;;;;;3.15;100.00;102322.88;4985247;28;20406;-49
2022/12/02 09:46:14;;;;;;;36.20;18.25;;;;;;;3.03;100.00;102326.16;4970886;28;20050;-49
2022/12/02 09:48:50;;;;;;;39.45;20.27;;;;;;;3.01;100.00;102323.66;4985831;28;20034;-48
2022/12/02 09:51:18;;;;;;;34.03;19.27;;;;;;;3.07;100.00;102319.38;4988137;28;20057;-50
2022/12/02 09:53:46;;;;;;;35.50;19.02;;;;;;;3.09;100.00;102330.81;4989523;28;20149;-47
2022/12/02 09:56:18;;;;;;;38.83;21.25;;;;;;;3.03;100.00;102335.09;4973991;28;20047;-47
2022/12/02 09:58:51;;;;;;;38.05;21.27;;;;;;;3.07;100.00;102327.47;4968563;28;20494;-50
2022/12/02 10:01:18;;;;;;;39.65;21.65;;;;;;;3.13;100.00;102329.44;4964751;28;20062;-49
2022/12/02 10:03:48;;;;;;;43.03;21.92;;;;;;;3.02;100.00;102321.78;4987383;28;20125;-50
2022/12/02 10:06:25;;;;;;;42.45;23.00;;;;;;;3.04;100.00;102322.44;4961252;28;20155;-49
2022/12/02 10:08:54;;;;;;;45.20;22.85;;;;;;;3.03;100.00;102318.06;4977637;28;20047;-48
2022/12/02 10:11:32;;;;;;;44.92;23.13;;;;;;;3.02;100.00;102316.41;4980601;28;20512;-48
2022/12/02 10:14:01;;;;;;;41.60;22.38;;;;;;;3.06;100.00;102313.19;4981591;28;20148;-49
2022/12/02 10:16:29;;;;;;;43.13;23.10;;;;;;;3.03;100.00;102312.69;4977951;28;20046;-48
2022/12/02 10:19:01;;;;;;;44.53;22.48;;;;;;;3.15;100.00;102311.22;4990887;28;20069;-50
2022/12/02 10:21:29;;;;;;;47.60;23.63;;;;;;;3.18;100.00;102310.88;4990104;28;20090;-48
2022/12/02 10:23:59;;;;;;;49.03;24.70;;;;;;;3.15;100.00;102311.22;4969223;28;20050;-48
2022/12/02 10:26:40;;;;;;;42.25;22.83;;;;;;;3.31;100.00;102311.09;4977495;28;20050;-49
2022/12/02 10:29:15;;;;;;;46.88;24.25;;;;;;;3.38;100.00;102312.03;4960184;28;20064;-47
2022/12/02 10:32:01;;;;;;;49.03;25.77;;;;;;;3.27;100.00;102317.88;4984515;28;20031;-49
2022/12/02 10:34:31;;;;;;;43.88;23.10;;;;;;;3.18;100.00;102316.28;4964389;28;20047;-49
2022/12/02 10:37:24;;;;;;;47.40;24.42;;;;;;;3.19;100.00;102299.09;4977608;28;20408;-48
2022/12/02 10:40:11;;;;;;;50.10;25.75;;;;;;;3.18;100.00;102300.13;4973956;28;20042;-51
2022/12/02 10:42:39;;;;;;;45.58;23.50;;;;;;;3.19;100.00;102296.38;4982277;28;20524;-50
2022/12/02 10:45:25;;;;;;;45.50;24.42;;;;;;;3.23;100.00;102292.31;4982655;28;20497;-49
2022/12/02 10:48:19;;;;;;;48.72;23.27;;;;;;;3.18;100.00;102300.13;4974604;28;20042;-48
2022/12/02 10:50:46;;;;;;;45.55;23.30;;;;;;;3.27;100.00;102293.63;4980757;28;20098;-48
2022/12/02 10:53:16;;;;;;;49.72;25.52;;;;;;;3.31;100.00;102294.09;4986623;28;20039;-52
2022/12/02 10:55:45;;;;;;;44.20;24.27;;;;;;;3.24;100.00;102293.16;4975781;28;20046;-48
2022/12/02 10:58:16;;;;;;;42.75;23.73;;;;;;;3.17;100.00;102290.34;4965902;28;20044;-50
2022/12/02 11:00:43;;;;;;;48.20;25.13;;;;;;;3.21;100.00;102294.34;4968148;28;20049;-46
2022/12/02 11:03:12;;;;;;;47.75;23.25;;;;;;;3.22;100.00;102296.00;4986791;28;20102;-49
2022/12/02 11:05:40;;;;;;;42.92;22.08;;;;;;;3.25;100.00;102289.41;4977035;28;20061;-49
2022/12/02 11:08:27;;;;;;;49.38;23.65;;;;;;;3.27;100.00;102288.25;4976640;28;20069;-50
2022/12/02 11:11:34;;;;;;;45.53;23.85;;;;;;;3.21;100.00;102286.28;4976288;28;20041;-50
2022/12/02 11:14:04;;;;;;;47.85;24.90;;;;;;;3.25;100.00;102289.41;4995016;28;20038;-47
2022/12/02 11:16:32;;;;;;;44.33;23.00;;;;;;;3.29;100.00;102280.78;4985377;28;20038;-52
2022/12/02 11:19:02;;;;;;;46.85;24.55;;;;;;;3.37;100.00;102282.59;5012373;28;20513;-50
2022/12/02 11:21:31;;;;;;;52.60;25.33;;;;;;;3.34;100.00;102286.50;5009279;28;20053;-44
2022/12/02 11:24:26;;;;;;;39.70;22.23;;;;;;;3.26;100.00;102278.47;5011212;28;20456;-48
2022/12/02 11:27:01;;;;;;;44.30;22.42;;;;;;;3.28;100.00;102289.06;5015557;28;20050;-49
2022/12/02 11:29:33;;;;;;;41.08;21.25;;;;;;;3.31;100.00;102283.31;5015200;28;20041;-47
2022/12/02 11:32:15;;;;;;;41.00;22.55;;;;;;;3.36;100.00;102283.59;5001715;28;20046;-49